Time;durP1;ratioP1;P1;durP2;ratioP2;P2;SDS_P1;SDS_P2;PMS_P1;PMS_P2;Temp;Humidity;BMP_temperature;BMP_pressure;BME280_temperature;BME280_humidity;BME280_pressure;Samples;Min_cycle;Max_cycle;Signal;HPM_P1;HPM_P2
2023/03/17 00:01:53;;;;;;;10.18;3.53;;;;;;;19.08;40.89;101802.69;5075354;28;20049;-50
2023/03/17 00:04:23;;;;;;;6.45;3.47;;;;;;;19.08;40.80;101805.38;5075523;28;20049;-50
2023/03/17 00:06:51;;;;;;;5.82;3.55;;;;;;;19.07;40.83;101804.53;5075373;28;20055;-52
2023/03/17 00:09:21;;;;;;;5.22;3.33;;;;;;;19.05;40.97;101806.47;5074061;28;20055;-50
2023/03/17 00:11:49;;;;;;;7.88;3.72;;;;;;;19.05;40.88;101811.84;5075288;28;20044;-53
2023/03/17 00:14:18;;;;;;;6.38;3.58;;;;;;;19.05;40.88;101800.25;5075264;28;20045;-52
2023/03/17 00:16:51;;;;;;;5.00;3.20;;;;;;;19.03;40.92;101792.28;5076026;28;20056;-51
2023/03/17 00:19:25;;;;;;;5.68;4.05;;;;;;;19.04;41.02;101796.72;5075188;28;20477;-53
2023/03/17 00:21:53;;;;;;;6.28;3.47;;;;;;;19.03;40.84;101801.19;5075152;28;20044;-51
2023/03/17 00:24:21;;;;;;;5.15;3.50;;;;;;;19.02;40.75;101804.00;5074977;28;20044;-46
2023/03/17 00:26:48;;;;;;;8.90;3.63;;;;;;;19.03;40.99;101808.38;5074988;28;20048;-48
2023/03/17 00:29:15;;;;;;;6.03;3.72;;;;;;;19.01;40.74;101811.19;5074943;28;20391;-45
2023/03/17 00:31:44;;;;;;;5.95;3.40;;;;;;;19.01;40.81;101811.19;5074843;28;20044;-51
2023/03/17 00:34:16;;;;;;;6.97;4.60;;;;;;;19.00;40.91;101808.63;5074985;28;20494;-52
2023/03/17 00:36:47;;;;;;;7.47;4.10;;;;;;;19.00;40.93;101800.56;5074661;28;20048;-50
2023/03/17 00:39:15;;;;;;;9.45;3.60;;;;;;;19.00;40.91;101803.25;5074634;28;20505;-52
2023/03/17 00:41:42;;;;;;;5.75;3.88;;;;;;;18.99;40.99;101802.38;5074619;28;20043;-50
2023/03/17 00:44:10;;;;;;;6.25;3.78;;;;;;;18.98;40.85;101811.41;5075125;28;20055;-53
2023/03/17 00:46:40;;;;;;;5.72;4.07;;;;;;;18.98;40.95;101810.53;5074548;28;20478;-51
2023/03/17 00:49:20;;;;;;;7.88;4.55;;;;;;;18.98;40.90;101810.53;5074528;28;20537;-52
2023/03/17 00:51:49;;;;;;;5.50;3.88;;;;;;;18.98;41.02;101810.53;5074075;28;20059;-51
2023/03/17 00:54:19;;;;;;;5.53;4.05;;;;;;;18.97;41.00;101811.50;5074456;28;20519;-53
2023/03/17 00:56:48;;;;;;;7.38;4.35;;;;;;;18.96;40.87;101815.16;5074253;28;20048;-50
2023/03/17 00:59:29;;;;;;;7.82;3.90;;;;;;;18.95;41.03;101816.97;5074566;28;20071;-52
2023/03/17 01:01:56;;;;;;;6.38;4.13;;;;;;;18.97;40.89;101808.84;5074500;28;20044;-52
2023/03/17 01:04:24;;;;;;;6.90;4.40;;;;;;;18.95;40.80;101808.91;5074327;28;20044;-48
2023/03/17 01:06:52;;;;;;;5.75;3.58;;;;;;;18.95;40.80;101813.44;5073143;28;20056;-48
2023/03/17 01:09:25;;;;;;;7.38;4.80;;;;;;;18.95;40.93;101813.44;5074086;28;20044;-48
2023/03/17 01:11:54;;;;;;;5.78;3.90;;;;;;;18.95;40.83;101797.31;5074167;28;20048;-47
2023/03/17 01:14:22;;;;;;;5.93;4.07;;;;;;;18.94;40.85;101801.84;5074155;28;20048;-46
2023/03/17 01:16:51;;;;;;;8.25;4.35;;;;;;;18.94;40.76;101800.97;5072937;28;20048;-45
2023/03/17 01:19:19;;;;;;;6.80;4.38;;;;;;;18.93;40.80;101793.91;5073962;28;20051;-46
2023/03/17 01:21:46;;;;;;;5.80;3.78;;;;;;;18.93;40.86;101791.22;5074214;28;20059;-47
2023/03/17 01:24:14;;;;;;;6.75;4.30;;;;;;;18.93;40.80;101793.91;5073886;28;20059;-51
2023/03/17 01:26:41;;;;;;;5.85;3.75;;;;;;;18.91;40.75;101783.25;5073553;28;20053;-49
2023/03/17 01:29:08;;;;;;;8.13;4.35;;;;;;;18.92;40.69;101786.81;5073659;28;20041;-50
2023/03/17 01:31:36;;;;;;;6.32;4.25;;;;;;;18.91;40.79;101787.78;5072782;28;20498;-52
2023/03/17 01:34:05;;;;;;;6.35;4.05;;;;;;;18.89;41.02;101787.03;5073865;28;20052;-51
2023/03/17 01:36:33;;;;;;;7.55;4.40;;;;;;;18.91;40.97;101785.09;5073765;28;20406;-50
2023/03/17 01:39:00;;;;;;;5.32;3.35;;;;;;;18.91;40.88;101785.09;5074057;28;20045;-53
2023/03/17 01:41:32;;;;;;;6.18;4.00;;;;;;;18.90;41.11;101775.31;5073667;28;20051;-46
2023/03/17 01:44:00;;;;;;;6.55;3.97;;;;;;;18.89;40.97;101773.63;5072909;28;20056;-51
2023/03/17 01:46:30;;;;;;;8.25;4.22;;;;;;;18.90;41.00;101767.28;5073682;28;20040;-50
2023/03/17 01:48:57;;;;;;;7.22;4.18;;;;;;;18.88;40.71;101771.88;5072583;28;20044;-50
2023/03/17 01:51:39;;;;;;;5.57;3.78;;;;;;;18.88;40.69;101772.75;5072530;28;20040;-49
2023/03/17 01:54:17;;;;;;;8.43;4.30;;;;;;;18.87;40.86;101764.81;5073517;28;20055;-49
2023/03/17 01:56:48;;;;;;;6.47;4.03;;;;;;;18.88;41.02;101769.19;5072728;28;20059;-50
2023/03/17 01:59:25;;;;;;;6.65;3.97;;;;;;;18.86;40.81;101766.63;5072592;28;20053;-51
2023/03/17 02:02:02;;;;;;;6.50;3.88;;;;;;;18.85;40.78;101764.91;5073663;28;20067;-50
2023/03/17 02:04:31;;;;;;;6.22;4.50;;;;;;;18.85;40.81;101764.91;5073039;28;20044;-50
2023/03/17 02:07:01;;;;;;;6.40;4.30;;;;;;;18.85;40.73;101769.44;5072659;28;20056;-50
2023/03/17 02:09:31;;;;;;;7.03;3.80;;;;;;;18.84;40.69;101771.25;5073484;28;20067;-53
2023/03/17 02:12:00;;;;;;;7.18;4.25;;;;;;;18.83;40.73;101766.84;5073412;28;20040;-50
2023/03/17 02:14:28;;;;;;;5.20;3.78;;;;;;;18.84;40.87;101762.31;5072401;28;20044;-50
2023/03/17 02:16:58;;;;;;;7.50;4.25;;;;;;;18.82;40.83;101766.94;5072396;28;20049;-54
2023/03/17 02:19:25;;;;;;;5.65;4.00;;;;;;;18.83;40.85;101772.19;5073369;28;20048;-51
2023/03/17 02:21:55;;;;;;;6.32;4.10;;;;;;;18.82;40.89;101769.63;5073361;28;20052;-52
2023/03/17 02:24:29;;;;;;;6.45;4.03;;;;;;;18.82;40.86;101765.13;5073306;28;20045;-53
2023/03/17 02:27:02;;;;;;;6.32;4.30;;;;;;;18.81;40.72;101763.41;5072304;28;20060;-54
2023/03/17 02:29:32;;;;;;;6.25;4.13;;;;;;;18.82;40.85;101764.25;5073377;28;20075;-54
2023/03/17 02:32:01;;;;;;;7.45;3.83;;;;;;;18.81;40.71;101757.19;5073142;28;20048;-51
2023/03/17 02:34:30;;;;;;;5.90;4.18;;;;;;;18.81;40.65;101762.56;5073961;28;20438;-47
2023/03/17 02:36:58;;;;;;;6.07;4.07;;;;;;;18.80;40.87;101760.81;5072219;28;20056;-47
2023/03/17 02:39:26;;;;;;;7.20;4.30;;;;;;;18.80;40.80;101763.50;5073062;28;20398;-51
2023/03/17 02:41:53;;;;;;;8.23;3.58;;;;;;;18.80;40.79;101766.19;5073069;28;20051;-54
2023/03/17 02:44:21;;;;;;;5.63;3.70;;;;;;;18.78;40.69;101764.47;5072946;28;20044;-51
2023/03/17 02:46:48;;;;;;;6.50;4.03;;;;;;;18.78;40.74;101772.53;5072978;28;20063;-50
2023/03/17 02:49:16;;;;;;;7.82;3.80;;;;;;;18.78;40.68;101774.34;5073331;28;20052;-52
2023/03/17 02:51:44;;;;;;;6.70;4.43;;;;;;;18.78;40.70;101771.66;5072981;28;20041;-53
2023/03/17 02:54:12;;;;;;;5.93;4.43;;;;;;;18.78;40.66;101774.34;5072961;28;20048;-50
2023/03/17 02:56:39;;;;;;;5.32;4.10;;;;;;;18.76;40.65;101771.78;5073010;28;20060;-52
2023/03/17 02:59:08;;;;;;;5.38;4.05;;;;;;;18.77;40.75;101773.50;5072984;28;20049;-50
2023/03/17 03:01:35;;;;;;;6.15;4.30;;;;;;;18.76;40.78;101762.88;5071682;28;20512;-46
2023/03/17 03:04:03;;;;;;;5.93;3.80;;;;;;;18.76;40.89;101760.19;5073087;28;20044;-46
2023/03/17 03:06:30;;;;;;;6.63;4.38;;;;;;;18.75;40.50;101759.31;5072945;28;20044;-46
2023/03/17 03:08:58;;;;;;;5.78;3.90;;;;;;;18.76;40.78;101757.50;5072841;28;20048;-46
2023/03/17 03:11:25;;;;;;;8.40;4.40;;;;;;;18.75;40.81;101770.03;5072802;28;20051;-49
2023/03/17 03:13:53;;;;;;;6.40;3.70;;;;;;;18.75;40.61;101778.09;5072796;28;20053;-50
2023/03/17 03:16:20;;;;;;;5.15;3.95;;;;;;;18.74;40.95;101771.00;5075008;28;20052;-54
2023/03/17 03:18:47;;;;;;;6.10;4.03;;;;;;;18.73;40.83;101777.34;5076361;28;20044;-53
2023/03/17 03:21:15;;;;;;;7.03;4.07;;;;;;;18.73;40.60;101782.72;5076300;28;20048;-54
2023/03/17 03:23:44;;;;;;;5.63;3.88;;;;;;;18.71;40.84;101787.31;5076481;28;20049;-51
2023/03/17 03:26:14;;;;;;;8.50;4.13;;;;;;;18.73;40.72;101796.13;5075960;28;20411;-49
2023/03/17 03:28:41;;;;;;;5.15;3.92;;;;;;;18.73;40.74;101795.28;5076394;28;20044;-48
2023/03/17 03:31:09;;;;;;;6.95;4.22;;;;;;;18.71;40.67;101790.00;5076223;28;20044;-47
2023/03/17 03:33:37;;;;;;;7.07;4.22;;;;;;;18.71;40.67;101791.81;5076122;28;20527;-48
2023/03/17 03:36:05;;;;;;;6.47;3.80;;;;;;;18.71;40.65;101789.13;5076522;28;20067;-47
2023/03/17 03:38:32;;;;;;;5.13;3.67;;;;;;;18.70;40.73;101787.44;5075804;28;20486;-46
2023/03/17 03:41:00;;;;;;;7.38;4.07;;;;;;;18.71;40.61;101797.19;5075524;28;20052;-46
2023/03/17 03:43:28;;;;;;;5.63;3.60;;;;;;;18.69;40.72;101786.53;5075775;28;20387;-46
2023/03/17 03:45:55;;;;;;;7.13;3.78;;;;;;;18.69;40.81;101794.59;5075944;28;20486;-46
2023/03/17 03:48:23;;;;;;;7.22;4.40;;;;;;;18.69;40.65;101797.25;5075850;28;20048;-48
2023/03/17 03:50:55;;;;;;;4.75;3.78;;;;;;;18.68;40.63;101795.56;5075494;28;20048;-47
2023/03/17 03:53:23;;;;;;;5.80;3.80;;;;;;;18.68;40.65;101795.56;5075464;28;20048;-48
2023/03/17 03:55:51;;;;;;;5.75;4.00;;;;;;;18.68;40.60;101795.56;5075484;28;20056;-49
2023/03/17 03:58:18;;;;;;;5.78;3.80;;;;;;;18.67;40.49;101799.19;5075473;28;20116;-49
2023/03/17 04:00:45;;;;;;;5.72;4.28;;;;;;;18.67;40.62;101798.31;5075358;28;20047;-51
2023/03/17 04:03:13;;;;;;;7.75;4.57;;;;;;;18.66;40.85;101794.78;5075476;28;20044;-50
2023/03/17 04:05:40;;;;;;;6.45;4.35;;;;;;;18.66;40.77;101800.16;5075586;28;20049;-46
2023/03/17 04:08:08;;;;;;;4.50;3.15;;;;;;;18.66;40.66;101801.97;5075344;28;20379;-46
2023/03/17 04:10:35;;;;;;;5.78;4.03;;;;;;;18.65;40.67;101808.31;5075009;28;20487;-48
2023/03/17 04:13:03;;;;;;;5.95;4.07;;;;;;;18.65;40.74;101797.59;5075128;28;20071;-49
2023/03/17 04:15:30;;;;;;;5.95;3.90;;;;;;;18.65;40.69;101801.13;5075071;28;20058;-54
2023/03/17 04:17:57;;;;;;;5.47;3.85;;;;;;;18.65;40.59;101801.13;5075224;28;20049;-50
2023/03/17 04:20:24;;;;;;;5.80;3.80;;;;;;;18.65;40.84;101801.13;5075296;28;20047;-54
2023/03/17 04:22:52;;;;;;;6.93;4.18;;;;;;;18.64;40.92;101798.56;5074956;28;20052;-51
2023/03/17 04:25:19;;;;;;;7.00;3.67;;;;;;;18.63;40.77;101800.34;5075045;28;20056;-52
2023/03/17 04:27:46;;;;;;;5.28;3.45;;;;;;;18.63;40.74;101803.03;5074132;28;20044;-48
2023/03/17 04:30:15;;;;;;;6.22;3.42;;;;;;;18.63;40.68;101803.03;5075005;28;20483;-48
2023/03/17 04:32:43;;;;;;;6.85;3.88;;;;;;;18.62;40.74;101795.09;5074857;28;20040;-48
2023/03/17 04:35:13;;;;;;;7.05;3.72;;;;;;;18.62;40.77;101795.94;5074907;28;20071;-50
2023/03/17 04:37:41;;;;;;;5.45;3.88;;;;;;;18.61;40.66;101799.59;5074602;28;20383;-45
2023/03/17 04:40:10;;;;;;;6.38;3.85;;;;;;;18.61;40.61;101796.94;5075065;28;20052;-47
2023/03/17 04:42:37;;;;;;;5.53;3.58;;;;;;;18.61;40.68;101791.56;5074795;28;20048;-47
2023/03/17 04:45:08;;;;;;;4.97;3.60;;;;;;;18.60;40.65;101792.53;5074763;28;20075;-47
2023/03/17 04:47:36;;;;;;;5.78;3.75;;;;;;;18.60;40.56;101797.91;5074923;28;20379;-47
2023/03/17 04:50:04;;;;;;;7.20;3.58;;;;;;;18.61;40.57;101790.72;5074485;28;20048;-46
2023/03/17 04:52:31;;;;;;;5.63;3.83;;;;;;;18.61;40.63;101793.38;5074385;28;20041;-46
2023/03/17 04:54:59;;;;;;;4.70;3.22;;;;;;;18.59;40.76;101793.47;5074566;28;20048;-46
2023/03/17 04:57:26;;;;;;;4.88;3.42;;;;;;;18.59;40.73;101788.09;5074368;28;20360;-46
2023/03/17 04:59:53;;;;;;;5.43;3.13;;;;;;;18.59;40.73;101787.25;5074358;28;20044;-47
2023/03/17 05:02:21;;;;;;;6.93;3.47;;;;;;;18.59;40.60;101784.56;5074332;28;20067;-49
2023/03/17 05:04:48;;;;;;;5.53;3.53;;;;;;;18.59;40.71;101787.25;5074486;28;20485;-50
2023/03/17 05:07:15;;;;;;;7.43;3.90;;;;;;;18.58;40.69;101791.75;5074127;28;20052;-52
2023/03/17 05:09:43;;;;;;;5.53;3.22;;;;;;;18.57;40.88;101784.69;5074473;28;20383;-50
2023/03/17 05:12:12;;;;;;;6.72;3.50;;;;;;;18.58;40.84;101786.41;5074180;28;20037;-51
2023/03/17 05:14:40;;;;;;;4.93;2.95;;;;;;;18.57;40.74;101792.72;5074035;28;20040;-50
2023/03/17 05:17:07;;;;;;;7.18;4.05;;;;;;;18.58;40.78;101785.53;5074142;28;20056;-52
2023/03/17 05:19:35;;;;;;;6.55;3.13;;;;;;;18.57;40.56;101787.38;5074189;28;20040;-52
2023/03/17 05:22:02;;;;;;;5.22;3.42;;;;;;;18.57;40.70;101787.38;5073941;28;20032;-52
2023/03/17 05:24:29;;;;;;;5.47;3.55;;;;;;;18.58;40.63;101793.59;5073853;28;20394;-46
2023/03/17 05:26:57;;;;;;;5.63;3.38;;;;;;;18.57;40.69;101791.88;5073944;28;20478;-47
2023/03/17 05:29:24;;;;;;;8.05;3.50;;;;;;;18.56;40.61;101791.03;5073842;28;20070;-49
2023/03/17 05:31:51;;;;;;;5.32;3.10;;;;;;;18.56;40.60;101796.38;5073885;28;20466;-47
2023/03/17 05:34:19;;;;;;;6.28;3.38;;;;;;;18.55;40.61;101797.31;5074056;28;20052;-47
2023/03/17 05:36:46;;;;;;;6.07;3.28;;;;;;;18.56;40.54;101803.56;5073812;28;20044;-48
2023/03/17 05:39:14;;;;;;;7.28;2.90;;;;;;;18.54;40.45;101796.47;5073679;28;20048;-46
2023/03/17 05:41:41;;;;;;;6.25;3.13;;;;;;;18.54;40.70;101803.66;5073917;28;20049;-49
2023/03/17 05:44:09;;;;;;;4.80;3.13;;;;;;;18.53;40.50;101802.81;5073836;28;20044;-53
2023/03/17 05:46:36;;;;;;;4.45;2.63;;;;;;;18.53;40.59;101797.44;5073810;28;20052;-50
2023/03/17 05:49:03;;;;;;;5.63;3.75;;;;;;;18.52;40.67;101795.72;5074173;28;20063;-51
2023/03/17 05:51:31;;;;;;;5.95;3.80;;;;;;;18.52;40.55;101793.03;5073482;28;20040;-50
2023/03/17 05:53:58;;;;;;;6.07;3.60;;;;;;;18.52;40.46;101793.03;5073632;28;20387;-47
2023/03/17 05:56:32;;;;;;;6.55;4.28;;;;;;;18.52;40.60;101800.25;5073183;28;20406;-48
2023/03/17 05:59:00;;;;;;;6.60;3.28;;;;;;;18.52;40.49;101800.25;5073525;28;20048;-46
2023/03/17 06:01:28;;;;;;;5.80;3.38;;;;;;;18.51;40.60;101799.38;5073526;28;20052;-47
2023/03/17 06:03:56;;;;;;;7.35;3.42;;;;;;;18.51;40.46;101802.06;5073585;28;20051;-48
2023/03/17 06:06:23;;;;;;;5.25;3.45;;;;;;;18.51;40.49;101793.13;5073507;28;20056;-47
2023/03/17 06:08:51;;;;;;;4.57;3.20;;;;;;;18.51;40.59;101795.81;5073547;28;20053;-47
2023/03/17 06:11:20;;;;;;;5.85;3.28;;;;;;;18.50;40.41;101799.47;5073330;28;20052;-47
2023/03/17 06:13:48;;;;;;;5.50;3.03;;;;;;;18.50;40.58;101791.41;5073021;28;20072;-51
2023/03/17 06:16:15;;;;;;;5.88;3.10;;;;;;;18.49;40.53;101785.19;5073251;28;20044;-53
2023/03/17 06:18:44;;;;;;;6.50;3.53;;;;;;;18.50;40.54;101786.91;5073408;28;20040;-51
2023/03/17 06:21:12;;;;;;;6.32;3.45;;;;;;;18.49;40.45;101781.66;5073248;28;20048;-50
2023/03/17 06:23:39;;;;;;;7.78;3.40;;;;;;;18.49;40.49;101785.19;5073225;28;20044;-50
2023/03/17 06:26:07;;;;;;;6.13;3.17;;;;;;;18.50;40.40;101781.56;5073393;28;20412;-48
2023/03/17 06:28:34;;;;;;;4.95;2.90;;;;;;;18.51;40.53;101787.75;5073373;28;20383;-47
2023/03/17 06:31:02;;;;;;;7.78;3.15;;;;;;;18.50;40.52;101776.19;5073107;28;20048;-46
2023/03/17 06:33:34;;;;;;;5.68;3.22;;;;;;;18.50;40.39;101791.41;5073136;28;20103;-47
2023/03/17 06:36:02;;;;;;;6.95;3.67;;;;;;;18.50;40.35;101786.91;5073433;28;20052;-50
2023/03/17 06:38:29;;;;;;;6.93;3.47;;;;;;;18.50;40.42;101797.63;5073403;28;20048;-50
2023/03/17 06:40:56;;;;;;;5.80;3.30;;;;;;;18.50;40.42;101792.28;5073204;28;20056;-50
2023/03/17 06:43:24;;;;;;;5.60;3.38;;;;;;;18.51;40.41;101795.81;5073388;28;20048;-53
2023/03/17 06:45:51;;;;;;;5.72;3.20;;;;;;;18.51;40.28;101799.38;5073190;28;20048;-53
2023/03/17 06:48:18;;;;;;;6.47;3.50;;;;;;;18.50;40.24;101797.63;5073069;28;20051;-51
2023/03/17 06:50:46;;;;;;;5.57;2.92;;;;;;;18.50;40.48;101794.97;5073792;28;20052;-52
2023/03/17 06:53:14;;;;;;;6.78;3.53;;;;;;;18.51;40.16;101799.38;5076891;28;20043;-51
2023/03/17 06:55:41;;;;;;;6.13;3.38;;;;;;;18.51;40.30;101807.44;5077053;28;20056;-50
2023/03/17 06:58:09;;;;;;;4.65;2.85;;;;;;;18.50;40.18;101799.47;5077070;28;20471;-46
2023/03/17 07:00:39;;;;;;;5.82;2.90;;;;;;;18.50;40.14;101799.47;5076873;28;20041;-48
2023/03/17 07:03:08;;;;;;;6.72;4.10;;;;;;;18.51;40.29;101810.09;5076721;28;20049;-47
2023/03/17 07:05:38;;;;;;;6.20;3.20;;;;;;;18.51;40.39;101803.84;5076796;28;20467;-50
2023/03/17 07:08:05;;;;;;;5.38;3.20;;;;;;;18.50;40.27;101803.00;5075566;28;20049;-51
2023/03/17 07:10:34;;;;;;;5.95;2.90;;;;;;;18.51;40.28;101803.84;5076589;28;20048;-52
2023/03/17 07:13:01;;;;;;;5.90;3.50;;;;;;;18.50;40.27;101807.50;5076502;28;20513;-53
2023/03/17 07:15:33;;;;;;;5.55;3.20;;;;;;;18.51;40.23;101809.22;5075642;28;20141;-50
2023/03/17 07:18:01;;;;;;;5.93;3.05;;;;;;;18.51;40.37;101810.09;5076575;28;20044;-46
2023/03/17 07:20:29;;;;;;;5.57;3.00;;;;;;;18.51;40.38;101814.59;5076832;28;20049;-47
2023/03/17 07:22:56;;;;;;;8.15;3.88;;;;;;;18.50;40.28;101813.72;5076435;28;20045;-48
2023/03/17 07:25:24;;;;;;;7.30;3.17;;;;;;;18.51;40.63;101811.91;5076601;28;20041;-52
2023/03/17 07:27:51;;;;;;;5.53;3.25;;;;;;;18.51;40.45;101814.59;5076852;28;20048;-51
2023/03/17 07:30:19;;;;;;;5.88;3.42;;;;;;;18.51;40.52;101815.47;5076172;28;20044;-51
2023/03/17 07:32:47;;;;;;;6.28;3.17;;;;;;;18.51;40.44;101819.94;5076145;28;20044;-51
2023/03/17 07:35:15;;;;;;;7.38;3.30;;;;;;;18.52;40.65;101821.69;5076254;28;20037;-53
2023/03/17 07:37:43;;;;;;;6.30;3.13;;;;;;;18.51;40.41;101815.47;5076273;28;20048;-50
2023/03/17 07:40:10;;;;;;;6.18;3.10;;;;;;;18.51;40.61;101815.47;5075985;28;20485;-52
2023/03/17 07:42:38;;;;;;;7.50;3.65;;;;;;;18.51;40.50;101811.91;5076018;28;20052;-50
2023/03/17 07:45:06;;;;;;;9.77;3.10;;;;;;;18.51;40.65;101812.78;5076608;28;20048;-49
2023/03/17 07:47:34;;;;;;;8.35;3.53;;;;;;;18.52;40.31;101811.81;5075799;28;20049;-49
2023/03/17 07:50:01;;;;;;;6.15;2.95;;;;;;;18.53;40.92;101815.34;5075687;28;20056;-48
2023/03/17 07:52:29;;;;;;;5.95;3.35;;;;;;;18.53;40.84;101812.66;5075560;28;20391;-48
2023/03/17 07:54:57;;;;;;;9.50;3.92;;;;;;;18.53;40.80;101812.66;5076195;28;20044;-51
2023/03/17 07:57:24;;;;;;;7.13;3.30;;;;;;;18.53;40.43;101818.03;5075809;28;20044;-52
2023/03/17 07:59:52;;;;;;;7.10;3.25;;;;;;;18.53;40.38;101815.34;5075646;28;20048;-51
2023/03/17 08:02:20;;;;;;;6.82;3.45;;;;;;;18.53;40.41;101818.03;5074243;28;20047;-53
2023/03/17 08:04:47;;;;;;;6.88;3.10;;;;;;;18.53;40.41;101812.66;5075455;28;20475;-46
2023/03/17 08:07:14;;;;;;;5.75;3.50;;;;;;;18.53;40.49;101810.84;5075272;28;20056;-47
2023/03/17 08:09:42;;;;;;;4.85;2.65;;;;;;;18.54;40.32;101811.69;5075208;28;20056;-47
2023/03/17 08:12:10;;;;;;;5.13;2.90;;;;;;;18.53;40.64;101816.22;5075256;28;20048;-50
2023/03/17 08:14:37;;;;;;;8.27;3.15;;;;;;;18.55;40.55;101816.09;5075435;28;20052;-48
2023/03/17 08:17:05;;;;;;;6.93;2.70;;;;;;;18.56;41.30;101814.31;5074682;28;20052;-50
2023/03/17 08:19:32;;;;;;;5.35;3.22;;;;;;;18.57;41.08;101807.97;5074568;28;20044;-49
2023/03/17 08:22:00;;;;;;;5.78;3.25;;;;;;;18.59;40.59;101804.19;5075146;28;20048;-49
2023/03/17 08:24:28;;;;;;;10.48;3.47;;;;;;;18.61;40.36;101813.03;5074906;28;20048;-50
2023/03/17 08:26:55;;;;;;;7.97;4.18;;;;;;;18.61;39.23;101810.34;5075217;28;20044;-50
2023/03/17 08:29:27;;;;;;;6.85;4.65;;;;;;;18.60;38.49;101808.63;5075007;28;20479;-50
2023/03/17 08:31:54;;;;;;;8.65;5.00;;;;;;;18.60;37.97;101808.63;5074721;28;20049;-54
2023/03/17 08:34:23;;;;;;;7.82;4.20;;;;;;;18.59;37.55;101808.72;5074379;28;20048;-52
2023/03/17 08:36:50;;;;;;;7.97;4.50;;;;;;;18.57;37.00;101806.13;5074187;28;20056;-52
2023/03/17 08:39:18;;;;;;;7.38;4.32;;;;;;;18.56;36.83;101807.13;5074475;28;20403;-48
2023/03/17 08:41:45;;;;;;;5.25;3.50;;;;;;;18.57;36.92;101813.34;5074603;28;20048;-48
2023/03/17 08:44:13;;;;;;;7.68;3.70;;;;;;;18.57;37.21;101807.97;5074417;28;20037;-47
2023/03/17 08:46:41;;;;;;;6.22;4.10;;;;;;;18.57;36.84;101813.34;5073175;28;20052;-47
2023/03/17 08:49:09;;;;;;;9.35;4.00;;;;;;;18.57;36.89;101811.50;5074438;28;20390;-47
2023/03/17 08:51:38;;;;;;;6.07;3.95;;;;;;;18.57;36.61;101806.13;5073086;28;20041;-48
2023/03/17 08:54:06;;;;;;;5.68;3.28;;;;;;;18.58;37.09;101807.00;5073847;28;20055;-46
2023/03/17 08:56:34;;;;;;;8.05;3.35;;;;;;;18.58;36.78;101802.50;5073802;28;20055;-47
2023/03/17 08:59:04;;;;;;;5.72;3.30;;;;;;;18.58;36.97;101813.22;5073834;28;20048;-49
2023/03/17 09:01:33;;;;;;;7.63;3.25;;;;;;;18.58;36.58;101802.50;5074303;28;20079;-50
2023/03/17 09:04:01;;;;;;;4.97;2.80;;;;;;;18.58;35.50;101807.00;5073832;28;20403;-48
2023/03/17 09:06:29;;;;;;;4.32;2.90;;;;;;;18.52;34.63;101794.88;5073850;28;20055;-49
2023/03/17 09:08:56;;;;;;;4.75;3.00;;;;;;;18.47;34.71;101805.03;5074185;28;20056;-49
2023/03/17 09:11:26;;;;;;;3.88;2.78;;;;;;;18.44;35.83;101800.75;5074110;28;20047;-46
2023/03/17 09:13:54;;;;;;;5.13;2.53;;;;;;;18.45;37.10;101802.47;5073930;28;20048;-53
2023/03/17 09:16:22;;;;;;;4.00;2.70;;;;;;;18.48;37.81;101798.72;5073602;28;20049;-50
2023/03/17 09:18:50;;;;;;;5.18;2.65;;;;;;;18.50;38.12;101792.28;5073763;28;20041;-49
2023/03/17 09:21:17;;;;;;;5.05;2.20;;;;;;;18.53;38.18;101796.59;5073930;28;20041;-52
2023/03/17 09:23:45;;;;;;;8.70;2.95;;;;;;;18.54;38.33;101793.78;5073817;28;20049;-50
2023/03/17 09:26:13;;;;;;;5.55;2.22;;;;;;;18.57;38.55;101787.38;5073665;28;20057;-49
2023/03/17 09:28:41;;;;;;;5.50;2.60;;;;;;;18.59;38.65;101785.44;5073674;28;20041;-49
2023/03/17 09:31:11;;;;;;;5.15;2.10;;;;;;;18.60;38.51;101780.94;5073644;28;20052;-46
2023/03/17 09:33:39;;;;;;;3.90;2.30;;;;;;;18.61;38.49;101782.66;5073666;28;20502;-48
2023/03/17 09:36:08;;;;;;;5.65;2.00;;;;;;;18.61;38.39;101783.53;5073714;28;20045;-46
2023/03/17 09:38:36;;;;;;;4.90;2.38;;;;;;;18.63;38.73;101784.25;5071964;28;20062;-48
2023/03/17 09:41:19;;;;;;;4.63;2.13;;;;;;;18.63;38.72;101784.25;5073389;28;20048;-46
2023/03/17 09:44:20;;;;;;;5.30;2.03;;;;;;;18.65;39.02;101781.50;5073322;28;20384;-50
2023/03/17 09:47:04;;;;;;;4.47;1.73;;;;;;;18.65;38.97;101776.13;5073379;28;20510;-49
2023/03/17 09:49:41;;;;;;;3.80;1.95;;;;;;;18.65;38.89;101779.66;5073283;28;20079;-49
2023/03/17 09:52:13;;;;;;;3.92;1.75;;;;;;;18.67;39.00;101779.53;5073248;28;20049;-49
2023/03/17 09:54:41;;;;;;;4.93;2.00;;;;;;;18.66;38.75;101776.00;5073238;28;20072;-52
2023/03/17 09:57:12;;;;;;;3.47;1.98;;;;;;;18.67;38.80;101776.88;5073105;28;20176;-50
2023/03/17 09:59:42;;;;;;;4.10;2.22;;;;;;;18.67;38.91;101780.41;5073311;28;20049;-50
2023/03/17 10:02:31;;;;;;;3.58;2.00;;;;;;;18.68;38.81;101774.09;5073193;28;20047;-49
2023/03/17 10:05:16;;;;;;;4.00;1.92;;;;;;;18.68;38.85;101768.72;5073119;28;20047;-51
2023/03/17 10:08:03;;;;;;;3.40;1.70;;;;;;;18.67;38.79;101758.94;5073225;28;20458;-52
2023/03/17 10:10:52;;;;;;;3.33;2.00;;;;;;;18.68;38.88;101767.88;5073114;28;20368;-50
2023/03/17 10:13:41;;;;;;;2.80;1.80;;;;;;;18.68;38.85;101758.00;5073117;28;20055;-50
2023/03/17 10:16:21;;;;;;;5.50;1.73;;;;;;;18.69;38.77;101762.41;5073510;28;20398;-47
2023/03/17 10:18:54;;;;;;;3.50;1.98;;;;;;;18.69;38.74;101753.50;5073155;28;20052;-47
2023/03/17 10:21:27;;;;;;;4.40;1.92;;;;;;;18.70;38.68;101763.28;5072974;28;20049;-48
2023/03/17 10:23:56;;;;;;;2.78;1.80;;;;;;;18.70;38.65;101752.56;5073189;28;20055;-51
2023/03/17 10:26:32;;;;;;;2.45;1.48;;;;;;;18.70;38.73;101747.19;5075498;28;20044;-49
2023/03/17 10:29:09;;;;;;;3.42;1.75;;;;;;;18.70;38.63;101753.41;5077137;28;20052;-51
2023/03/17 10:31:38;;;;;;;3.28;1.67;;;;;;;18.70;38.68;101741.81;5077269;28;20098;-50
2023/03/17 10:34:14;;;;;;;2.90;1.60;;;;;;;18.68;38.68;101739.22;5077088;28;20055;-51
2023/03/17 10:37:02;;;;;;;3.60;1.88;;;;;;;18.69;38.59;101742.75;5077164;28;20052;-51
2023/03/17 10:39:29;;;;;;;2.50;1.25;;;;;;;18.68;38.88;101731.19;5076328;28;20065;-49
2023/03/17 10:42:08;;;;;;;3.25;1.73;;;;;;;18.69;38.94;101740.09;5076845;28;20036;-47
2023/03/17 10:45:15;;;;;;;3.20;1.52;;;;;;;18.69;39.17;101740.94;5073334;28;20495;-51
2023/03/17 10:47:47;;;;;;;4.53;1.48;;;;;;;18.70;39.30;101728.41;5075772;28;20063;-50
2023/03/17 10:50:17;;;;;;;5.45;1.63;;;;;;;18.69;39.36;101738.25;5076532;28;20060;-50
2023/03/17 10:52:46;;;;;;;3.22;1.42;;;;;;;18.70;39.15;101733.78;5076384;28;20040;-51
2023/03/17 10:55:17;;;;;;;4.20;1.30;;;;;;;18.71;39.47;101735.50;5076277;28;20044;-49
2023/03/17 10:57:58;;;;;;;3.85;1.48;;;;;;;18.70;39.48;101731.09;5076410;28;20044;-50
2023/03/17 11:00:28;;;;;;;4.05;1.50;;;;;;;18.70;39.36;101726.59;5076360;28;20044;-51
2023/03/17 11:02:57;;;;;;;4.07;1.88;;;;;;;18.70;39.33;101726.59;5076322;28;20479;-51
2023/03/17 11:05:27;;;;;;;4.63;1.95;;;;;;;18.70;39.33;101734.63;5075885;28;20048;-50
2023/03/17 11:08:09;;;;;;;2.92;1.70;;;;;;;18.70;39.59;101721.22;5076294;28;20483;-50
2023/03/17 11:10:39;;;;;;;3.22;1.50;;;;;;;18.70;39.16;101726.59;5076369;28;20471;-49
2023/03/17 11:13:07;;;;;;;3.75;1.65;;;;;;;18.70;39.12;101718.53;5076506;28;20055;-50
2023/03/17 11:15:41;;;;;;;2.83;1.20;;;;;;;18.69;39.10;101714.13;5076173;28;20069;-50
2023/03/17 11:18:40;;;;;;;2.70;1.40;;;;;;;18.70;39.12;101718.53;5075898;28;20053;-49
2023/03/17 11:21:22;;;;;;;3.20;1.30;;;;;;;18.70;38.95;101707.81;5075939;28;20550;-51
2023/03/17 11:24:08;;;;;;;3.17;1.50;;;;;;;18.70;39.04;101707.81;5075884;28;20498;-46
2023/03/17 11:26:43;;;;;;;2.78;1.27;;;;;;;18.70;38.93;101704.28;5076201;28;20052;-51
2023/03/17 11:29:25;;;;;;;2.65;1.20;;;;;;;18.70;38.97;101699.75;5076169;28;20060;-49
2023/03/17 11:32:02;;;;;;;3.83;1.38;;;;;;;18.70;39.06;101697.09;5075106;28;20055;-49
2023/03/17 11:34:55;;;;;;;4.40;1.38;;;;;;;18.69;39.17;101698.03;5074653;28;20041;-49
2023/03/17 11:37:44;;;;;;;3.25;1.90;;;;;;;18.69;39.11;101686.44;5055509;28;20049;-50